Okesa, Oklahoma
Current Conditions -  °F | °C
As of 11:53 AM on Thursday 29 Jan 2015 (Local Time) from KBVO Reporting Station
Overcast Overcast  
Wind Chill: 40°   Ceiling: 3600
Heat Index: 47°   Visibility: 10mi
Dew Point: 30°   Wind: 16mph
Humidity: 52%   Direction: 360°N
Pressure: 30.44"   Gusts: 25mph
Location:  36.7524°N, 96.0733°W
Report Text: KBVO 291753Z AUTO 36014G22KT 10SM OVC036 08/M01 A3044 RMK AO2 SLP301 T00831011 10094 20067 51026
Loading
Personal Weather Stations






























Interactive Weather Map New forecast layout! Learn more

10-Day Weather Forecast

Advertisements
Track Severe Weather on mobile